Terminal Aerodrome Forecast
Issued by NWS

Home | Current Version | Previous Version | Text Only | Print | Product List | Glossary On
Versions: 1 2 3 4 5 6 7 8 9 10 11 12 13 14
000
FTAK31 PAJN 051122
TAFAYA
TAF
PAYA 051122Z 0512/0612 10004KT P6SM -RA OVC035
     FM051600 07004KT 6SM -SHRA SCT015 BKN025 OVC040
     FM052100 08005KT P6SM -SHRA SCT030 OVC040
     FM060000 09005KT P6SM VCSH SCT030 OVC040
      AMD LTD TO CLD VIS AND WIND 0601/0610=

USA.gov is the U.S. government's official web portal to all federal, state and local government web resources and services.